Time;durP1;ratioP1;P1;durP2;ratioP2;P2;SDS_P1;SDS_P2;PMS_P1;PMS_P2;Temp;Humidity;BMP_temperature;BMP_pressure;BME280_temperature;BME280_humidity;BME280_pressure;Samples;Min_cycle;Max_cycle;Signal;HPM_P1;HPM_P2
2022/04/03 00:00:35;;;;;;;4.35;2.92;;;;;;;-1.91;82.71;98772.13;4199220;28;20082;-71
2022/04/03 00:02:36;;;;;;;4.47;3.08;;;;;;;-1.97;82.81;98765.97;4195899;28;20080;-71
2022/04/03 00:04:36;;;;;;;4.63;2.70;;;;;;;-1.95;82.32;98769.19;4190988;28;20053;-71
2022/04/03 00:06:36;;;;;;;4.32;2.90;;;;;;;-1.97;82.41;98768.69;4195028;28;20403;-71
2022/04/03 00:08:37;;;;;;;5.43;2.85;;;;;;;-1.98;82.51;98764.34;4195646;28;20082;-71
2022/04/03 00:10:39;;;;;;;7.25;3.15;;;;;;;-2.01;82.71;98760.28;4196071;28;20044;-71
2022/04/03 00:12:41;;;;;;;6.65;2.92;;;;;;;-2.01;82.79;98771.13;4195455;28;20040;-71
2022/04/03 00:14:41;;;;;;;6.43;3.45;;;;;;;-2.03;82.66;98767.91;4195811;28;20044;-71
2022/04/03 00:16:41;;;;;;;3.92;3.03;;;;;;;-2.05;82.76;98767.41;4192346;28;20342;-71
2022/04/03 00:18:42;;;;;;;4.18;2.67;;;;;;;-2.03;82.60;98769.81;4196532;28;20275;-70
2022/04/03 00:20:42;;;;;;;4.85;3.08;;;;;;;-2.07;82.84;98772.31;4195739;28;20386;-71
2022/04/03 00:22:48;;;;;;;3.65;2.80;;;;;;;-2.07;82.85;98779.59;4194228;28;20057;-71
2022/04/03 00:24:48;;;;;;;6.00;3.17;;;;;;;-2.09;83.13;98777.19;4193334;28;20048;-71
2022/04/03 00:26:48;;;;;;;4.70;2.83;;;;;;;-2.12;82.74;98777.78;4193207;28;20049;-71
2022/04/03 00:28:49;;;;;;;4.72;2.97;;;;;;;-2.12;81.73;98782.41;4197250;28;20102;-71
2022/04/03 00:30:49;;;;;;;6.13;3.13;;;;;;;-2.13;81.40;98780.78;4197137;28;20131;-71
2022/04/03 00:32:49;;;;;;;4.28;2.85;;;;;;;-2.10;80.45;98782.91;4193336;28;20048;-71
2022/04/03 00:34:50;;;;;;;5.65;3.13;;;;;;;-2.11;80.38;98784.00;4197100;28;20048;-71
2022/04/03 00:36:53;;;;;;;6.35;2.67;;;;;;;-2.11;80.26;98773.16;4196125;28;20050;-71
2022/04/03 00:38:54;;;;;;;5.43;2.50;;;;;;;-2.08;79.61;98781.50;4189511;28;20353;-71
2022/04/03 00:40:55;;;;;;;5.72;2.92;;;;;;;-2.09;79.46;98777.19;4195712;28;20105;-71
2022/04/03 00:42:55;;;;;;;4.22;2.83;;;;;;;-2.07;79.17;98790.47;4196977;28;20048;-71
2022/04/03 00:44:56;;;;;;;3.50;2.38;;;;;;;-2.06;79.24;98773.13;4198457;28;20076;-71
2022/04/03 00:46:57;;;;;;;4.35;2.63;;;;;;;-2.05;78.56;98782.88;4192407;28;20052;-71
2022/04/03 00:48:59;;;;;;;4.20;2.70;;;;;;;-2.02;78.64;98788.50;4198660;28;20484;-71
2022/04/03 00:51:00;;;;;;;5.57;2.97;;;;;;;-2.03;78.97;98780.66;4192591;28;20521;-71
2022/04/03 00:53:00;;;;;;;5.75;2.58;;;;;;;-2.06;78.71;98786.69;4198300;28;20071;-71
2022/04/03 00:55:01;;;;;;;4.55;2.67;;;;;;;-2.11;78.58;98784.00;4198689;28;20044;-71
2022/04/03 00:57:08;;;;;;;6.72;2.70;;;;;;;-2.16;79.08;98790.28;4194451;28;20067;-71
2022/04/03 00:59:13;;;;;;;4.43;2.80;;;;;;;-2.20;79.81;98791.16;4198043;28;20046;-71
2022/04/03 01:01:13;;;;;;;5.05;2.78;;;;;;;-2.24;80.30;98780.06;4195215;28;20044;-71
2022/04/03 01:03:14;;;;;;;3.63;2.60;;;;;;;-2.29;80.37;98785.56;4196812;28;20569;-71
2022/04/03 01:05:15;;;;;;;4.32;2.90;;;;;;;-2.29;80.58;98783.66;4199518;28;20415;-71
2022/04/03 01:07:15;;;;;;;4.07;2.63;;;;;;;-2.32;81.00;98788.81;4192922;28;20516;-71
2022/04/03 01:09:15;;;;;;;3.75;2.45;;;;;;;-2.31;80.66;98779.63;4195509;28;20080;-71
2022/04/03 01:11:20;;;;;;;4.85;3.13;;;;;;;-2.36;81.04;98782.38;4195809;28;20539;-71
2022/04/03 01:13:21;;;;;;;6.40;2.67;;;;;;;-2.36;81.11;98785.88;4193652;28;20419;-71
2022/04/03 01:15:22;;;;;;;3.60;2.60;;;;;;;-2.35;80.59;98779.38;4196112;28;20048;-71
2022/04/03 01:17:22;;;;;;;4.65;2.78;;;;;;;-2.35;80.38;98779.38;4194085;28;20041;-71
2022/04/03 01:19:22;;;;;;;5.72;2.92;;;;;;;-2.37;81.09;98784.28;4194743;28;20040;-71
2022/04/03 01:21:23;;;;;;;3.83;2.83;;;;;;;-2.38;80.24;98779.13;4192874;28;20274;-71
2022/04/03 01:23:25;;;;;;;4.68;2.88;;;;;;;-2.44;80.97;98777.56;4200651;28;20535;-71
2022/04/03 01:25:25;;;;;;;4.53;2.53;;;;;;;-2.53;81.86;98782.78;4194276;28;20040;-71
2022/04/03 01:27:26;;;;;;;4.88;2.75;;;;;;;-2.60;81.97;98776.91;4192701;28;20296;-71
2022/04/03 01:29:26;;;;;;;6.00;3.00;;;;;;;-2.62;82.20;98770.97;4195264;28;20444;-71
2022/04/03 01:31:26;;;;;;;5.03;2.72;;;;;;;-2.69;82.10;98781.31;4195702;28;20051;-71
2022/04/03 01:33:27;;;;;;;4.47;2.45;;;;;;;-2.66;81.94;98783.44;4193907;28;20502;-71
2022/04/03 01:35:27;;;;;;;4.32;2.50;;;;;;;-2.72;82.05;98787.31;4195980;28;20033;-71
2022/04/03 01:37:28;;;;;;;7.38;2.90;;;;;;;-2.75;81.91;98780.53;4195508;28;20071;-71
2022/04/03 01:39:28;;;;;;;7.28;3.20;;;;;;;-2.78;82.37;98778.41;4195978;28;20689;-71
2022/04/03 01:41:29;;;;;;;3.88;2.70;;;;;;;-2.82;82.57;98785.47;4192624;28;20643;-71
2022/04/03 01:43:29;;;;;;;5.28;2.78;;;;;;;-2.90;83.37;98780.66;4194701;28;20624;-71
2022/04/03 01:45:30;;;;;;;4.43;2.42;;;;;;;-2.93;83.53;98779.31;4195672;28;20109;-71
2022/04/03 01:47:30;;;;;;;7.07;3.10;;;;;;;-3.00;83.21;98781.53;4193809;28;20118;-71
2022/04/03 01:49:31;;;;;;;4.00;2.40;;;;;;;-3.04;83.42;98780.50;4194229;28;20133;-71
2022/04/03 01:51:32;;;;;;;8.32;2.78;;;;;;;-3.02;83.13;98788.34;4190958;28;20076;-71
2022/04/03 01:53:32;;;;;;;4.03;2.63;;;;;;;-2.99;82.91;98779.63;4194317;28;20534;-71
2022/04/03 01:55:33;;;;;;;4.75;2.80;;;;;;;-2.99;82.49;98777.75;4193605;28;20098;-71
2022/04/03 01:57:33;;;;;;;4.72;2.83;;;;;;;-2.98;83.05;98781.25;4200012;28;20036;-71
2022/04/03 01:59:34;;;;;;;3.92;2.28;;;;;;;-2.98;83.22;98786.66;4195313;28;20052;-71
2022/04/03 02:01:35;;;;;;;3.80;2.78;;;;;;;-3.04;83.11;98780.50;4193803;28;20045;-71
2022/04/03 02:03:35;;;;;;;7.60;3.33;;;;;;;-3.06;83.26;98789.97;4193985;28;20044;-71
2022/04/03 02:05:35;;;;;;;6.57;3.58;;;;;;;-3.08;83.52;98781.34;4195710;28;20426;-71
2022/04/03 02:07:36;;;;;;;8.65;4.38;;;;;;;-3.18;83.54;98785.72;4191293;28;20111;-71
2022/04/03 02:09:36;;;;;;;6.40;3.42;;;;;;;-3.17;83.61;98784.63;4192685;28;20043;-71
2022/04/03 02:11:38;;;;;;;6.18;3.80;;;;;;;-3.15;83.27;98778.94;4199323;28;20069;-71
2022/04/03 02:13:38;;;;;;;4.38;2.45;;;;;;;-3.20;83.11;98779.00;4196058;28;20075;-71
2022/04/03 02:15:39;;;;;;;6.20;3.28;;;;;;;-3.26;83.57;98780.91;4191266;28;20040;-71
2022/04/03 02:17:40;;;;;;;7.60;3.42;;;;;;;-3.27;83.67;98789.31;4194905;28;20455;-71
2022/04/03 02:19:41;;;;;;;5.72;2.95;;;;;;;-3.26;82.87;98786.31;4195821;28;20032;-71
2022/04/03 02:21:41;;;;;;;4.40;2.65;;;;;;;-3.29;82.80;98795.00;4191722;28;20423;-71
2022/04/03 02:23:41;;;;;;;4.70;2.78;;;;;;;-3.30;82.63;98784.47;4195729;28;20108;-71
2022/04/03 02:25:42;;;;;;;5.10;2.90;;;;;;;-3.34;83.63;98788.81;4200893;28;20044;-71
2022/04/03 02:27:46;;;;;;;4.03;2.70;;;;;;;-3.36;83.33;98783.69;4192473;28;20067;-71
2022/04/03 02:29:46;;;;;;;5.40;2.72;;;;;;;-3.43;83.54;98784.00;4191629;28;20194;-71
2022/04/03 02:31:47;;;;;;;4.97;2.90;;;;;;;-3.46;83.98;98781.03;4199083;28;20529;-71
2022/04/03 02:33:47;;;;;;;4.00;2.40;;;;;;;-3.53;83.92;98789.47;4194213;28;20812;-71
2022/04/03 02:35:47;;;;;;;5.38;3.05;;;;;;;-3.55;84.04;98791.63;4191041;28;20364;-71
2022/04/03 02:37:48;;;;;;;4.28;2.50;;;;;;;-3.54;82.78;98795.16;4195022;28;20229;-71
2022/04/03 02:39:48;;;;;;;5.07;2.90;;;;;;;-3.52;82.53;98795.69;4191098;28;20040;-71
2022/04/03 02:41:49;;;;;;;5.32;2.55;;;;;;;-3.56;82.90;98790.00;4193133;28;20048;-71
2022/04/03 02:43:49;;;;;;;5.88;2.45;;;;;;;-3.57;82.43;98801.09;4194405;28;20078;-71
2022/04/03 02:45:49;;;;;;;4.50;2.58;;;;;;;-3.61;83.19;98797.34;4193782;28;20032;-71
2022/04/03 02:47:52;;;;;;;4.63;2.60;;;;;;;-3.60;83.09;98798.97;4196172;28;20133;-71
2022/04/03 02:49:53;;;;;;;4.32;2.58;;;;;;;-3.64;83.04;98806.84;4195344;28;20044;-71
2022/04/03 02:51:53;;;;;;;6.72;2.78;;;;;;;-3.69;83.65;98802.25;4198808;28;20036;-71
2022/04/03 02:53:54;;;;;;;4.60;3.00;;;;;;;-3.74;83.73;98806.84;4197872;28;20036;-71
2022/04/03 02:55:54;;;;;;;6.82;2.95;;;;;;;-3.80;84.45;98802.56;4195956;28;20040;-71
2022/04/03 02:57:55;;;;;;;4.25;2.38;;;;;;;-3.84;84.32;98806.91;4193500;28;20045;-71
2022/04/03 02:59:55;;;;;;;4.53;2.50;;;;;;;-3.86;84.75;98806.38;4198586;28;20138;-71
2022/04/03 03:01:55;;;;;;;4.57;2.72;;;;;;;-3.86;85.10;98811.78;4199630;28;20166;-71
2022/04/03 03:03:55;;;;;;;3.65;2.45;;;;;;;-3.91;84.85;98811.78;4194449;28;20127;-71
2022/04/03 03:05:56;;;;;;;6.05;3.00;;;;;;;-3.94;84.89;98810.44;4200994;28;20539;-71
2022/04/03 03:07:56;;;;;;;3.38;2.38;;;;;;;-3.99;85.30;98808.56;4195884;28;20036;-70
2022/04/03 03:09:57;;;;;;;5.25;2.80;;;;;;;-4.01;85.51;98829.66;4194982;28;20476;-71
2022/04/03 03:12:00;;;;;;;4.35;2.88;;;;;;;-4.04;85.77;98826.69;4198027;28;20078;-71
2022/04/03 03:14:00;;;;;;;4.57;2.95;;;;;;;-4.07;86.33;98827.22;4196760;28;20036;-71
2022/04/03 03:16:00;;;;;;;4.47;2.92;;;;;;;-4.12;86.15;98819.16;4196371;28;20044;-71
2022/04/03 03:18:01;;;;;;;5.63;2.30;;;;;;;-4.16;86.40;98815.38;4193259;28;20425;-72
2022/04/03 03:20:01;;;;;;;5.50;2.90;;;;;;;-4.18;86.42;98822.94;4195402;28;20387;-72
2022/04/03 03:22:01;;;;;;;6.40;2.80;;;;;;;-4.20;86.94;98825.91;4197560;28;20193;-71
2022/04/03 03:24:02;;;;;;;5.97;2.97;;;;;;;-4.21;86.58;98827.00;4194769;28;20059;-72
2022/04/03 03:26:02;;;;;;;7.20;2.75;;;;;;;-4.24;86.77;98822.94;4198283;28;20066;-72
2022/04/03 03:28:03;;;;;;;5.50;3.38;;;;;;;-4.29;87.94;98828.38;4196991;28;20036;-71
2022/04/03 03:30:04;;;;;;;6.15;3.00;;;;;;;-4.32;88.11;98830.78;4191901;28;20047;-71
2022/04/03 03:32:05;;;;;;;4.97;3.05;;;;;;;-4.36;88.25;98829.72;4193499;28;20107;-71
2022/04/03 03:34:05;;;;;;;7.60;2.78;;;;;;;-4.45;89.68;98825.97;4195448;28;20035;-71
2022/04/03 03:36:07;;;;;;;3.50;2.55;;;;;;;-4.46;90.02;98827.84;4198009;28;20120;-71
2022/04/03 03:38:08;;;;;;;4.32;2.80;;;;;;;-4.50;90.09;98824.06;4193961;28;20035;-71
2022/04/03 03:40:11;;;;;;;4.70;2.95;;;;;;;-4.52;89.70;98837.03;4198816;28;20120;-71
2022/04/03 03:42:11;;;;;;;;;;;;;;;-4.53;90.03;98838.13;4198572;28;20235;-71
2022/04/03 03:44:11;;;;;;;4.35;2.42;;;;;;;-4.55;90.59;98840.25;4199456;28;19924;-71
2022/04/03 03:46:12;;;;;;;5.03;2.85;;;;;;;-4.59;91.12;98831.91;4195948;28;20081;-71
2022/04/03 03:48:12;;;;;;;4.43;2.70;;;;;;;-4.58;90.75;98841.63;4195408;28;20032;-71
2022/04/03 03:50:14;;;;;;;3.90;2.88;;;;;;;-4.62;90.75;98840.53;4196530;28;20036;-71
2022/04/03 03:52:14;;;;;;;5.60;2.77;;;;;;;-4.62;90.79;98837.84;4199569;28;20046;-71
2022/04/03 03:54:15;;;;;;;6.50;3.20;;;;;;;-4.61;90.76;98841.34;4191820;28;20247;-71
2022/04/03 03:56:15;;;;;;;4.97;3.00;;;;;;;-4.62;90.77;98845.13;4197424;28;20090;-71
2022/04/03 03:58:15;;;;;;;6.85;2.95;;;;;;;-4.64;91.10;98845.38;4194670;28;20272;-71
2022/04/03 04:00:16;;;;;;;4.82;2.70;;;;;;;-4.67;91.17;98837.03;4196788;28;20036;-71
2022/04/03 04:02:16;;;;;;;2.97;2.10;;;;;;;-4.65;91.05;98845.66;4195901;28;20106;-71
2022/04/03 04:04:16;;;;;;;4.30;2.80;;;;;;;-4.67;91.08;98851.34;4197532;28;20439;-71
2022/04/03 04:06:17;;;;;;;4.60;2.50;;;;;;;-4.70;90.98;98848.38;4191659;28;20733;-71
2022/04/03 04:08:17;;;;;;;8.25;2.90;;;;;;;-4.69;90.38;98860.78;4199685;28;20035;-71
2022/04/03 04:10:18;;;;;;;6.78;3.00;;;;;;;-4.76;90.99;98854.84;4193616;28;20033;-71
2022/04/03 04:12:18;;;;;;;5.30;2.70;;;;;;;-4.78;91.76;98867.81;4196398;28;20029;-71
2022/04/03 04:14:18;;;;;;;6.57;2.80;;;;;;;-4.79;91.35;98855.38;4192339;28;20034;-71
2022/04/03 04:16:18;;;;;;;4.93;2.67;;;;;;;-4.83;91.28;98858.59;4195740;28;20052;-71
2022/04/03 04:18:19;;;;;;;6.88;3.08;;;;;;;-4.87;91.74;98860.25;4196003;28;20123;-71
2022/04/03 04:20:19;;;;;;;5.50;2.78;;;;;;;-4.91;91.29;98863.72;4193058;28;20031;-71
2022/04/03 04:22:20;;;;;;;7.60;2.45;;;;;;;-4.91;90.74;98861.03;4197471;28;20024;-71
2022/04/03 04:24:20;;;;;;;6.18;2.60;;;;;;;-4.94;90.02;98854.28;4197759;28;20197;-71
2022/04/03 04:26:20;;;;;;;5.32;2.90;;;;;;;-4.96;90.23;98864.53;4194687;28;20113;-71
2022/04/03 04:28:20;;;;;;;4.20;2.92;;;;;;;-5.01;90.25;98863.72;4189670;28;20076;-71
2022/04/03 04:30:21;;;;;;;5.93;3.22;;;;;;;-5.07;90.14;98867.47;4195413;28;20044;-71
2022/04/03 04:32:21;;;;;;;5.45;3.10;;;;;;;-5.11;90.36;98859.94;4196075;28;20442;-71
2022/04/03 04:34:22;;;;;;;10.50;4.82;;;;;;;-5.15;90.76;98864.22;4195385;28;20054;-71
2022/04/03 04:36:22;;;;;;;24.55;9.13;;;;;;;-5.16;90.34;98868.00;4198766;28;20032;-71
2022/04/03 04:38:22;;;;;;;25.88;9.60;;;;;;;-5.20;90.37;98871.50;4197536;28;20122;-72
2022/04/03 04:40:22;;;;;;;31.08;11.85;;;;;;;-5.21;91.02;98878.78;4192231;28;20049;-72
2022/04/03 04:42:23;;;;;;;24.67;10.50;;;;;;;-5.25;91.11;98872.28;4193284;28;20407;-71
2022/04/03 04:44:23;;;;;;;10.43;4.70;;;;;;;-5.28;90.95;98878.22;4196207;28;20537;-71
2022/04/03 04:46:23;;;;;;;8.05;4.45;;;;;;;-5.28;90.24;98877.41;4193661;28;20042;-71
2022/04/03 04:48:24;;;;;;;4.82;3.03;;;;;;;-5.31;90.45;98876.03;4193294;28;20068;-71
2022/04/03 04:50:29;;;;;;;5.18;2.83;;;;;;;-5.34;90.29;98884.66;4195751;28;20055;-71
2022/04/03 04:52:30;;;;;;;7.72;2.85;;;;;;;-5.38;90.33;98881.72;4190990;28;20049;-71
2022/04/03 04:54:30;;;;;;;7.05;3.28;;;;;;;-5.42;90.09;98882.47;4194610;28;20121;-71
2022/04/03 04:56:31;;;;;;;11.93;5.32;;;;;;;-5.40;90.33;98891.13;4194655;28;20046;-71
2022/04/03 04:58:31;;;;;;;14.10;6.30;;;;;;;-5.39;90.16;98892.72;4196478;28;20304;-71
2022/04/03 05:00:32;;;;;;;10.77;5.68;;;;;;;-5.42;90.27;98887.88;4197236;28;20054;-71
2022/04/03 05:02:32;;;;;;;6.25;3.33;;;;;;;-5.44;90.36;98898.13;4201961;28;20404;-71
2022/04/03 05:04:33;;;;;;;6.00;3.70;;;;;;;-5.40;90.05;98899.19;4195273;28;20047;-71
2022/04/03 05:06:35;;;;;;;6.05;3.15;;;;;;;-5.42;89.90;98901.34;4192087;28;20441;-71
2022/04/03 05:08:36;;;;;;;6.05;3.95;;;;;;;-5.46;89.92;98900.25;4193573;28;20041;-71
2022/04/03 05:10:36;;;;;;;5.55;3.67;;;;;;;-5.42;89.95;98902.16;4198455;28;20218;-71
2022/04/03 05:12:37;;;;;;;4.82;3.58;;;;;;;-5.48;90.09;98914.00;4192186;28;20127;-71
2022/04/03 05:14:37;;;;;;;6.60;3.50;;;;;;;-5.47;89.56;98920.19;4192725;28;20043;-71
2022/04/03 05:16:38;;;;;;;4.55;2.88;;;;;;;-5.44;89.63;98917.00;4195568;28;20047;-71
2022/04/03 05:18:39;;;;;;;3.00;2.40;;;;;;;-5.44;90.08;98923.19;4196463;28;20032;-72
2022/04/03 05:20:40;;;;;;;3.30;2.70;;;;;;;-5.42;89.35;98920.22;4195824;28;20058;-71
2022/04/03 05:22:42;;;;;;;5.22;2.60;;;;;;;-5.38;89.81;98921.31;4194396;28;20045;-71
2022/04/03 05:24:42;;;;;;;6.50;3.97;;;;;;;-5.31;89.55;98924.59;4196577;28;20080;-71
2022/04/03 05:26:43;;;;;;;5.97;3.67;;;;;;;-5.31;89.20;98921.91;4190579;28;20472;-71
2022/04/03 05:28:44;;;;;;;7.05;3.80;;;;;;;-5.26;89.21;98932.72;4192725;28;20130;-71
2022/04/03 05:30:44;;;;;;;8.27;4.22;;;;;;;-5.22;89.17;98924.88;4194482;28;20451;-71
2022/04/03 05:32:44;;;;;;;5.30;3.40;;;;;;;-5.20;88.71;98930.84;4194393;28;20052;-71
2022/04/03 05:34:45;;;;;;;6.22;3.67;;;;;;;-5.15;88.47;98931.66;4196009;28;20036;-71
2022/04/03 05:36:45;;;;;;;7.10;2.95;;;;;;;-5.14;88.17;98924.38;4194019;28;20033;-71
2022/04/03 05:38:45;;;;;;;5.95;2.97;;;;;;;-5.05;88.70;98932.78;4194580;28;20132;-71
2022/04/03 05:40:46;;;;;;;4.88;2.95;;;;;;;-4.98;88.07;98938.72;4195532;28;20048;-71
2022/04/03 05:42:46;;;;;;;5.53;3.05;;;;;;;-4.93;87.73;98933.38;4192751;28;20692;-71
2022/04/03 05:44:47;;;;;;;5.85;3.00;;;;;;;-4.87;87.13;98941.22;4195353;28;20078;-71
2022/04/03 05:46:48;;;;;;;4.40;2.80;;;;;;;-4.87;86.73;98938.50;4195643;28;20048;-71
2022/04/03 05:48:49;;;;;;;4.72;3.05;;;;;;;-4.84;86.56;98940.66;4191651;28;20048;-71
2022/04/03 05:50:50;;;;;;;6.45;2.90;;;;;;;-4.84;86.47;98943.38;4199556;28;20060;-71
2022/04/03 05:52:52;;;;;;;7.47;3.92;;;;;;;-4.78;86.82;98952.31;4195902;28;20052;-71
2022/04/03 05:54:53;;;;;;;7.45;4.20;;;;;;;-4.74;86.74;98944.47;4197131;28;20044;-71
2022/04/03 05:56:53;;;;;;;7.32;3.58;;;;;;;-4.70;86.26;98953.66;4195933;28;20090;-71
2022/04/03 05:58:54;;;;;;;5.22;3.33;;;;;;;-4.68;86.34;98954.22;4163491;28;20458;-71
2022/04/03 06:00:55;;;;;;;7.38;3.95;;;;;;;-4.64;85.87;98955.28;4175227;28;20052;-71
2022/04/03 06:02:59;;;;;;;8.82;4.05;;;;;;;-4.57;85.71;98955.84;4196600;28;20139;-71
2022/04/03 06:05:00;;;;;;;6.50;4.05;;;;;;;-4.54;85.09;98960.72;4196309;28;20429;-71
2022/04/03 06:07:00;;;;;;;6.90;3.75;;;;;;;-4.50;85.17;98955.59;4194901;28;20129;-71
2022/04/03 06:09:00;;;;;;;8.75;3.70;;;;;;;-4.42;86.14;98958.56;4191827;28;20111;-71
2022/04/03 06:11:01;;;;;;;8.73;3.58;;;;;;;-4.38;85.22;98964.25;4190606;28;20048;-71
2022/04/03 06:13:04;;;;;;;5.63;3.28;;;;;;;-4.30;85.04;98963.72;4195661;28;20435;-71
2022/04/03 06:15:05;;;;;;;5.18;2.83;;;;;;;-4.26;84.53;98972.91;4191829;28;20040;-71
2022/04/03 06:17:05;;;;;;;7.05;3.88;;;;;;;-4.25;84.87;98964.53;4193723;28;20044;-71
2022/04/03 06:19:06;;;;;;;6.82;2.95;;;;;;;-4.22;84.77;98965.06;4191857;28;20541;-71
2022/04/03 06:21:06;;;;;;;4.28;2.65;;;;;;;-4.19;84.30;98968.03;4192309;28;20044;-71
2022/04/03 06:23:24;;;;;;;7.40;3.15;;;;;;;-4.14;84.16;98959.91;4189937;28;20097;-71
2022/04/03 06:25:25;;;;;;;5.80;3.00;;;;;;;-4.08;83.93;98977.75;4190759;28;20189;-71
2022/04/03 06:27:27;;;;;;;6.35;3.17;;;;;;;-4.04;83.88;98969.94;4191271;28;20484;-71
2022/04/03 06:29:27;;;;;;;8.63;3.17;;;;;;;-3.94;83.20;98972.63;4200480;28;20395;-71
2022/04/03 06:31:27;;;;;;;10.50;5.57;;;;;;;-3.85;81.90;98970.19;4190668;28;20152;-71
2022/04/03 06:33:28;;;;;;;17.05;7.40;;;;;;;-3.74;81.82;98977.22;4191240;28;20051;-71
2022/04/03 06:35:28;;;;;;;22.10;7.85;;;;;;;-3.63;81.07;98978.03;4195452;28;20063;-71
2022/04/03 06:37:29;;;;;;;19.02;7.63;;;;;;;-3.60;81.00;98982.88;4195552;28;20056;-71
2022/04/03 06:39:29;;;;;;;7.45;3.97;;;;;;;-3.62;80.84;98980.44;4195125;28;20056;-71
2022/04/03 06:41:29;;;;;;;14.23;6.97;;;;;;;-3.58;81.23;98986.13;4193446;28;20499;-72
2022/04/03 06:43:30;;;;;;;12.10;6.65;;;;;;;-3.58;80.79;98989.63;4194342;28;20051;-71
2022/04/03 06:45:31;;;;;;;10.45;4.88;;;;;;;-3.56;81.21;98987.44;4190989;28;20036;-72
2022/04/03 06:47:32;;;;;;;11.98;5.57;;;;;;;-3.50;80.94;98988.25;4193099;28;20041;-72
2022/04/03 06:49:33;;;;;;;9.52;4.70;;;;;;;-3.52;80.21;98982.31;4195462;28;20098;-72
2022/04/03 06:51:33;;;;;;;22.85;9.13;;;;;;;-3.40;79.55;98990.94;4197466;28;20339;-72
2022/04/03 06:53:33;;;;;;;19.95;9.27;;;;;;;-3.36;78.76;98986.63;4190377;28;20068;-72
2022/04/03 06:55:34;;;;;;;15.75;7.20;;;;;;;-3.32;78.76;98992.28;4192108;28;20048;-71
2022/04/03 06:57:35;;;;;;;7.35;4.07;;;;;;;-3.22;76.97;98995.78;4192850;28;20116;-71
2022/04/03 06:59:35;;;;;;;8.95;4.22;;;;;;;-3.16;77.46;98996.56;4190809;28;20428;-71
2022/04/03 07:01:35;;;;;;;12.23;5.00;;;;;;;-3.18;77.88;98993.31;4194565;28;20040;-71
2022/04/03 07:03:35;;;;;;;11.48;5.95;;;;;;;-3.12;77.59;99001.16;4194128;28;20950;-71
2022/04/03 07:05:36;;;;;;;11.35;5.90;;;;;;;-3.11;77.35;98991.94;4192717;28;20036;-71
2022/04/03 07:07:37;;;;;;;12.85;5.93;;;;;;;-3.04;78.18;99001.69;4189819;28;20041;-72
2022/04/03 07:09:39;;;;;;;6.00;4.05;;;;;;;-2.91;76.73;99001.88;4193528;28;20046;-71
2022/04/03 07:11:40;;;;;;;8.73;4.32;;;;;;;-2.86;77.81;98999.16;4199048;28;20044;-72
2022/04/03 07:13:40;;;;;;;5.05;3.22;;;;;;;-2.79;76.40;99007.00;4189667;28;20495;-72
2022/04/03 07:15:41;;;;;;;4.53;3.08;;;;;;;-2.75;75.71;99001.81;4191255;28;20032;-72
2022/04/03 07:17:43;;;;;;;9.10;4.28;;;;;;;-2.67;74.53;99003.94;4195010;28;20055;-70
2022/04/03 07:19:44;;;;;;;5.63;3.42;;;;;;;-2.61;74.54;99009.06;4194999;28;20040;-71
2022/04/03 07:21:44;;;;;;;5.97;3.65;;;;;;;-2.58;74.30;99010.41;4190661;28;20063;-71
2022/04/03 07:23:44;;;;;;;5.03;3.58;;;;;;;-2.59;74.09;99006.88;4193135;28;20036;-71
2022/04/03 07:25:45;;;;;;;6.72;4.10;;;;;;;-2.49;74.27;99006.00;4196149;28;20427;-72
2022/04/03 07:27:45;;;;;;;9.30;3.78;;;;;;;-2.47;75.37;99006.56;4192857;28;20235;-72
2022/04/03 07:29:45;;;;;;;7.93;3.75;;;;;;;-2.38;74.64;99017.63;4187734;28;20377;-72
2022/04/03 07:31:46;;;;;;;7.25;3.55;;;;;;;-2.31;73.39;99013.50;4196755;28;20036;-71
2022/04/03 07:33:46;;;;;;;7.68;3.85;;;;;;;-2.23;73.28;99013.97;4197780;28;20543;-71
2022/04/03 07:35:47;;;;;;;9.45;4.30;;;;;;;-2.14;72.01;99009.63;4198801;28;20520;-71
2022/04/03 07:37:48;;;;;;;5.07;3.35;;;;;;;-2.12;71.27;99020.97;4192251;28;20071;-71
2022/04/03 07:39:48;;;;;;;4.25;3.20;;;;;;;-2.11;71.07;99023.41;4192994;28;20281;-72
2022/04/03 07:41:49;;;;;;;6.65;3.47;;;;;;;-2.10;71.22;99007.94;4195007;28;20393;-71
2022/04/03 07:43:49;;;;;;;5.95;2.83;;;;;;;-2.06;71.28;99009.00;4191799;28;20386;-71
2022/04/03 07:45:50;;;;;;;4.82;3.20;;;;;;;-2.01;71.56;99009.75;4195772;28;20494;-71
2022/04/03 07:47:51;;;;;;;5.35;3.22;;;;;;;-1.95;71.56;99007.03;4195188;28;20072;-71
2022/04/03 07:49:51;;;;;;;6.78;3.15;;;;;;;-1.84;68.89;99012.06;4196254;28;20378;-72
2022/04/03 07:51:52;;;;;;;5.82;3.08;;;;;;;-1.74;68.41;99011.16;4202875;28;20043;-72
2022/04/03 07:53:53;;;;;;;4.35;2.65;;;;;;;-1.69;68.97;99003.00;4193479;28;20040;-72
2022/04/03 07:55:53;;;;;;;5.85;2.97;;;;;;;-1.66;69.85;99015.19;4195796;28;20535;-72
2022/04/03 07:57:54;;;;;;;8.02;3.80;;;;;;;-1.61;69.66;99013.25;4194870;28;20036;-72
2022/04/03 07:59:54;;;;;;;5.05;2.45;;;;;;;-1.60;69.51;99012.13;4193698;28;20029;-71
2022/04/03 08:01:55;;;;;;;6.43;2.92;;;;;;;-1.59;69.11;99012.94;4198065;28;20039;-71
2022/04/03 08:03:55;;;;;;;7.20;3.55;;;;;;;-1.55;69.05;99017.53;4197786;28;20400;-71
2022/04/03 08:05:56;;;;;;;7.05;3.20;;;;;;;-1.46;69.07;99015.00;4202625;28;20032;-72
2022/04/03 08:07:56;;;;;;;5.15;2.58;;;;;;;-1.42;68.59;99021.47;4192580;28;20044;-71
2022/04/03 08:09:58;;;;;;;12.75;3.00;;;;;;;-1.36;69.15;99017.63;4197540;28;20048;-72
2022/04/03 08:11:58;;;;;;;4.80;3.00;;;;;;;-1.33;67.37;99021.66;4199202;28;20040;-71
2022/04/03 08:13:59;;;;;;;4.50;2.83;;;;;;;-1.29;68.10;99020.00;4197154;28;20051;-71
2022/04/03 08:16:01;;;;;;;6.63;3.25;;;;;;;-1.26;67.05;99022.94;4193941;28;20502;-71
2022/04/03 08:18:01;;;;;;;4.15;2.70;;;;;;;-1.16;65.26;99017.44;4193691;28;20101;-72
2022/04/03 08:20:02;;;;;;;3.55;2.50;;;;;;;-1.09;66.98;99027.13;4198538;28;20072;-72
2022/04/03 08:22:03;;;;;;;3.95;2.70;;;;;;;-1.15;66.52;99018.22;4197286;28;20320;-72
2022/04/03 08:24:03;;;;;;;5.72;3.00;;;;;;;-1.14;65.40;99020.66;4197421;28;20032;-72
2022/04/03 08:26:04;;;;;;;6.60;2.95;;;;;;;-1.06;66.89;99026.56;4194629;28;20357;-72
2022/04/03 08:28:04;;;;;;;8.68;4.10;;;;;;;-0.92;65.59;99030.19;4193195;28;20371;-72
2022/04/03 08:30:05;;;;;;;6.30;3.67;;;;;;;-0.88;64.72;99021.19;4193585;28;20029;-72
2022/04/03 08:32:06;;;;;;;4.07;2.65;;;;;;;-0.78;63.51;99030.28;4191745;28;20032;-72
2022/04/03 08:34:06;;;;;;;5.30;3.20;;;;;;;-0.69;62.52;99029.38;4195493;28;20023;-71
2022/04/03 08:36:06;;;;;;;5.88;3.42;;;;;;;-0.60;63.11;99030.34;4198336;28;20035;-72
2022/04/03 08:38:08;;;;;;;3.17;2.20;;;;;;;-0.58;60.06;99030.88;4196013;28;20039;-72
2022/04/03 08:40:09;;;;;;;3.47;2.40;;;;;;;-0.55;59.89;99026.75;4192085;28;20056;-72
2022/04/03 08:42:11;;;;;;;7.30;3.17;;;;;;;-0.46;61.75;99027.72;4202107;28;20093;-72
2022/04/03 08:44:11;;;;;;;4.82;2.85;;;;;;;-0.47;62.65;99019.84;4195275;28;20037;-72
2022/04/03 08:46:11;;;;;;;3.55;2.13;;;;;;;-0.38;63.65;99031.69;4194223;28;20120;-72
2022/04/03 08:48:15;;;;;;;2.78;1.80;;;;;;;-0.28;57.16;99028.84;4195304;28;20085;-72
2022/04/03 08:50:17;;;;;;;5.22;2.47;;;;;;;-0.23;55.82;99025.25;4199918;28;20499;-72
2022/04/03 08:52:18;;;;;;;7.25;2.33;;;;;;;-0.27;57.99;99027.72;4196200;28;20039;-72
2022/04/03 08:54:20;;;;;;;5.68;2.22;;;;;;;-0.08;58.57;99033.19;4194221;28;20511;-72
2022/04/03 08:56:21;;;;;;;3.72;2.20;;;;;;;0.06;59.48;99034.03;4196917;28;20181;-71
2022/04/03 08:58:21;;;;;;;3.22;2.30;;;;;;;0.18;57.73;99047.22;4196351;28;20138;-71
2022/04/03 09:00:22;;;;;;;3.47;2.33;;;;;;;0.19;54.33;99035.22;4197162;28;20052;-72
2022/04/03 09:02:23;;;;;;;2.72;2.00;;;;;;;0.27;56.85;99026.38;4196340;28;20043;-72
2022/04/03 09:04:24;;;;;;;4.18;2.47;;;;;;;0.32;58.43;99026.28;4194642;28;20411;-72
2022/04/03 09:06:24;;;;;;;3.30;2.17;;;;;;;0.34;55.67;99034.97;4190190;28;20046;-72
2022/04/03 09:08:36;;;;;;;7.43;4.40;;;;;;;0.36;57.02;99040.94;4193274;28;20048;-72
2022/04/03 09:10:37;;;;;;;5.13;2.78;;;;;;;0.51;55.63;99031.72;4200160;28;20477;-71
2022/04/03 09:12:49;;;;;;;5.35;3.10;;;;;;;0.54;59.36;99031.91;4195049;28;20093;-71
2022/04/03 09:14:50;;;;;;;3.60;2.58;;;;;;;0.55;57.08;99033.50;4192493;28;20373;-71
2022/04/03 09:16:52;;;;;;;6.03;2.70;;;;;;;0.56;56.79;99026.16;4191903;28;20409;-71
2022/04/03 09:18:53;;;;;;;3.25;2.17;;;;;;;0.62;56.59;99030.41;4193918;28;20427;-71
2022/04/03 09:20:53;;;;;;;4.10;2.88;;;;;;;0.76;56.58;99041.34;4194301;28;20036;-71
2022/04/03 09:22:56;;;;;;;2.80;2.10;;;;;;;0.80;56.83;99029.53;4193476;28;20048;-71
2022/04/03 09:24:56;;;;;;;5.13;2.83;;;;;;;0.84;57.99;99032.47;4197813;28;20497;-71
2022/04/03 09:26:59;;;;;;;9.43;7.35;;;;;;;0.80;57.16;99017.81;4194081;28;20045;-71
2022/04/03 09:29:08;;;;;;;6.30;3.78;;;;;;;0.78;56.30;99026.31;4197935;28;20040;-71